sensor_id;sensor_type;location;lat;lon;timestamp;P1;durP1;ratioP1;P2;durP2;ratioP2
11197;SDS011;5655;48.744;9.162;2023-12-20T00:00:37;1.17;;;1.05;;
11197;SDS011;5655;48.744;9.162;2023-12-20T00:03:03;1.35;;;1.20;;
11197;SDS011;5655;48.744;9.162;2023-12-20T00:05:29;2.08;;;1.42;;
11197;SDS011;5655;48.744;9.162;2023-12-20T00:07:54;2.17;;;1.35;;
11197;SDS011;5655;48.744;9.162;2023-12-20T00:10:19;1.48;;;1.38;;
11197;SDS011;5655;48.744;9.162;2023-12-20T00:12:45;2.08;;;1.38;;
11197;SDS011;5655;48.744;9.162;2023-12-20T00:15:10;3.20;;;1.13;;
11197;SDS011;5655;48.744;9.162;2023-12-20T00:17:35;2.70;;;1.17;;
11197;SDS011;5655;48.744;9.162;2023-12-20T00:20:01;2.28;;;1.45;;
11197;SDS011;5655;48.744;9.162;2023-12-20T00:22:26;1.08;;;0.98;;
11197;SDS011;5655;48.744;9.162;2023-12-20T00:24:51;1.63;;;1.08;;
11197;SDS011;5655;48.744;9.162;2023-12-20T00:27:17;1.33;;;1.05;;
11197;SDS011;5655;48.744;9.162;2023-12-20T00:29:42;1.77;;;1.40;;
11197;SDS011;5655;48.744;9.162;2023-12-20T00:32:09;1.88;;;1.38;;
11197;SDS011;5655;48.744;9.162;2023-12-20T00:34:35;1.08;;;1.00;;
11197;SDS011;5655;48.744;9.162;2023-12-20T00:37:00;1.40;;;1.20;;
11197;SDS011;5655;48.744;9.162;2023-12-20T00:39:25;1.67;;;1.00;;
11197;SDS011;5655;48.744;9.162;2023-12-20T00:41:50;1.70;;;1.00;;
11197;SDS011;5655;48.744;9.162;2023-12-20T00:44:16;1.42;;;1.20;;
11197;SDS011;5655;48.744;9.162;2023-12-20T00:46:41;2.50;;;1.35;;
11197;SDS011;5655;48.744;9.162;2023-12-20T00:49:06;1.35;;;1.17;;
11197;SDS011;5655;48.744;9.162;2023-12-20T00:51:31;1.00;;;0.90;;
11197;SDS011;5655;48.744;9.162;2023-12-20T00:53:57;3.13;;;1.23;;
11197;SDS011;5655;48.744;9.162;2023-12-20T00:56:22;1.27;;;1.08;;
11197;SDS011;5655;48.744;9.162;2023-12-20T00:58:47;1.15;;;1.00;;
11197;SDS011;5655;48.744;9.162;2023-12-20T01:01:13;1.73;;;1.38;;
11197;SDS011;5655;48.744;9.162;2023-12-20T01:03:38;1.45;;;1.00;;
11197;SDS011;5655;48.744;9.162;2023-12-20T01:06:03;1.35;;;1.08;;
11197;SDS011;5655;48.744;9.162;2023-12-20T01:08:30;2.67;;;1.35;;
11197;SDS011;5655;48.744;9.162;2023-12-20T01:13:23;1.63;;;1.40;;
11197;SDS011;5655;48.744;9.162;2023-12-20T01:15:48;2.63;;;1.08;;
11197;SDS011;5655;48.744;9.162;2023-12-20T01:18:14;1.10;;;1.00;;
11197;SDS011;5655;48.744;9.162;2023-12-20T01:20:39;2.47;;;0.95;;
11197;SDS011;5655;48.744;9.162;2023-12-20T01:23:05;1.20;;;1.00;;
11197;SDS011;5655;48.744;9.162;2023-12-20T01:25:30;1.55;;;1.08;;
11197;SDS011;5655;48.744;9.162;2023-12-20T01:27:56;1.27;;;1.10;;
11197;SDS011;5655;48.744;9.162;2023-12-20T01:30:21;1.38;;;0.98;;
11197;SDS011;5655;48.744;9.162;2023-12-20T01:32:46;1.23;;;1.02;;
11197;SDS011;5655;48.744;9.162;2023-12-20T01:35:11;1.50;;;1.38;;
11197;SDS011;5655;48.744;9.162;2023-12-20T01:37:38;1.88;;;1.20;;
11197;SDS011;5655;48.744;9.162;2023-12-20T01:40:04;1.20;;;1.08;;
11197;SDS011;5655;48.744;9.162;2023-12-20T01:42:29;1.98;;;1.10;;
11197;SDS011;5655;48.744;9.162;2023-12-20T01:44:55;1.80;;;1.20;;
11197;SDS011;5655;48.744;9.162;2023-12-20T01:47:20;1.17;;;1.05;;
11197;SDS011;5655;48.744;9.162;2023-12-20T01:49:47;1.60;;;1.20;;
11197;SDS011;5655;48.744;9.162;2023-12-20T01:52:13;1.63;;;1.35;;
11197;SDS011;5655;48.744;9.162;2023-12-20T01:54:38;2.55;;;1.30;;
11197;SDS011;5655;48.744;9.162;2023-12-20T01:57:04;1.67;;;1.25;;
11197;SDS011;5655;48.744;9.162;2023-12-20T01:59:31;3.20;;;1.10;;
11197;SDS011;5655;48.744;9.162;2023-12-20T02:01:56;2.42;;;1.40;;
11197;SDS011;5655;48.744;9.162;2023-12-20T02:04:22;1.58;;;1.20;;
11197;SDS011;5655;48.744;9.162;2023-12-20T02:06:47;1.35;;;1.10;;
11197;SDS011;5655;48.744;9.162;2023-12-20T02:09:17;1.77;;;1.23;;
11197;SDS011;5655;48.744;9.162;2023-12-20T02:11:43;1.48;;;1.23;;
11197;SDS011;5655;48.744;9.162;2023-12-20T02:14:08;1.65;;;1.20;;
11197;SDS011;5655;48.744;9.162;2023-12-20T02:16:34;1.48;;;1.10;;
11197;SDS011;5655;48.744;9.162;2023-12-20T02:18:59;1.15;;;0.80;;
11197;SDS011;5655;48.744;9.162;2023-12-20T02:21:25;1.50;;;1.00;;
11197;SDS011;5655;48.744;9.162;2023-12-20T02:23:56;1.20;;;0.85;;
11197;SDS011;5655;48.744;9.162;2023-12-20T02:26:21;1.30;;;1.20;;
11197;SDS011;5655;48.744;9.162;2023-12-20T02:28:47;1.50;;;0.90;;
11197;SDS011;5655;48.744;9.162;2023-12-20T02:31:12;1.20;;;1.00;;
11197;SDS011;5655;48.744;9.162;2023-12-20T02:33:38;0.90;;;0.80;;
11197;SDS011;5655;48.744;9.162;2023-12-20T02:36:04;1.23;;;0.77;;
11197;SDS011;5655;48.744;9.162;2023-12-20T02:38:31;0.95;;;0.80;;
11197;SDS011;5655;48.744;9.162;2023-12-20T02:40:56;0.82;;;0.70;;
11197;SDS011;5655;48.744;9.162;2023-12-20T02:43:22;2.03;;;0.77;;
11197;SDS011;5655;48.744;9.162;2023-12-20T02:45:47;1.30;;;0.90;;
11197;SDS011;5655;48.744;9.162;2023-12-20T02:48:12;0.70;;;0.50;;
11197;SDS011;5655;48.744;9.162;2023-12-20T02:50:37;1.38;;;0.60;;
11197;SDS011;5655;48.744;9.162;2023-12-20T02:53:03;1.42;;;0.80;;
11197;SDS011;5655;48.744;9.162;2023-12-20T02:55:28;1.05;;;0.80;;
11197;SDS011;5655;48.744;9.162;2023-12-20T02:57:54;0.80;;;0.75;;
11197;SDS011;5655;48.744;9.162;2023-12-20T03:00:19;0.93;;;0.80;;
11197;SDS011;5655;48.744;9.162;2023-12-20T03:02:44;0.50;;;0.50;;
11197;SDS011;5655;48.744;9.162;2023-12-20T03:05:09;2.28;;;0.82;;
11197;SDS011;5655;48.744;9.162;2023-12-20T03:07:36;0.90;;;0.70;;
11197;SDS011;5655;48.744;9.162;2023-12-20T03:10:02;0.82;;;0.82;;
11197;SDS011;5655;48.744;9.162;2023-12-20T03:12:28;1.10;;;0.82;;
11197;SDS011;5655;48.744;9.162;2023-12-20T03:14:53;2.20;;;0.80;;
11197;SDS011;5655;48.744;9.162;2023-12-20T03:17:18;1.67;;;0.90;;
11197;SDS011;5655;48.744;9.162;2023-12-20T03:19:45;0.43;;;0.40;;
11197;SDS011;5655;48.744;9.162;2023-12-20T03:22:10;1.02;;;0.90;;
11197;SDS011;5655;48.744;9.162;2023-12-20T03:24:36;0.77;;;0.68;;
11197;SDS011;5655;48.744;9.162;2023-12-20T03:27:01;0.65;;;0.60;;
11197;SDS011;5655;48.744;9.162;2023-12-20T03:29:26;1.08;;;0.70;;
11197;SDS011;5655;48.744;9.162;2023-12-20T03:31:52;0.93;;;0.70;;
11197;SDS011;5655;48.744;9.162;2023-12-20T03:34:17;0.63;;;0.55;;
11197;SDS011;5655;48.744;9.162;2023-12-20T03:36:42;3.15;;;0.70;;
11197;SDS011;5655;48.744;9.162;2023-12-20T03:39:07;0.50;;;0.50;;
11197;SDS011;5655;48.744;9.162;2023-12-20T03:41:35;0.60;;;0.50;;
11197;SDS011;5655;48.744;9.162;2023-12-20T03:44:00;0.40;;;0.40;;
11197;SDS011;5655;48.744;9.162;2023-12-20T03:46:25;0.70;;;0.57;;
11197;SDS011;5655;48.744;9.162;2023-12-20T03:48:51;0.50;;;0.50;;
11197;SDS011;5655;48.744;9.162;2023-12-20T03:51:16;0.32;;;0.32;;
11197;SDS011;5655;48.744;9.162;2023-12-20T03:53:41;0.73;;;0.30;;
11197;SDS011;5655;48.744;9.162;2023-12-20T03:56:07;0.50;;;0.50;;
11197;SDS011;5655;48.744;9.162;2023-12-20T03:58:32;0.20;;;0.20;;
11197;SDS011;5655;48.744;9.162;2023-12-20T04:00:57;0.28;;;0.17;;
11197;SDS011;5655;48.744;9.162;2023-12-20T04:03:22;0.10;;;0.10;;
11197;SDS011;5655;48.744;9.162;2023-12-20T04:05:48;0.20;;;0.20;;
11197;SDS011;5655;48.744;9.162;2023-12-20T04:08:13;0.20;;;0.20;;
11197;SDS011;5655;48.744;9.162;2023-12-20T04:10:38;0.73;;;0.38;;
11197;SDS011;5655;48.744;9.162;2023-12-20T04:13:04;0.20;;;0.20;;
11197;SDS011;5655;48.744;9.162;2023-12-20T04:15:29;0.20;;;0.20;;
11197;SDS011;5655;48.744;9.162;2023-12-20T04:17:54;0.43;;;0.20;;
11197;SDS011;5655;48.744;9.162;2023-12-20T04:20:20;0.22;;;0.13;;
11197;SDS011;5655;48.744;9.162;2023-12-20T04:22:45;0.20;;;0.13;;
11197;SDS011;5655;48.744;9.162;2023-12-20T04:25:11;0.20;;;0.13;;
11197;SDS011;5655;48.744;9.162;2023-12-20T04:27:36;0.20;;;0.20;;
11197;SDS011;5655;48.744;9.162;2023-12-20T04:30:01;0.20;;;0.20;;
11197;SDS011;5655;48.744;9.162;2023-12-20T04:32:27;0.10;;;0.10;;
11197;SDS011;5655;48.744;9.162;2023-12-20T04:34:52;0.20;;;0.20;;
11197;SDS011;5655;48.744;9.162;2023-12-20T04:37:17;1.85;;;0.20;;
11197;SDS011;5655;48.744;9.162;2023-12-20T04:39:43;0.47;;;0.28;;
11197;SDS011;5655;48.744;9.162;2023-12-20T04:42:08;0.30;;;0.25;;
11197;SDS011;5655;48.744;9.162;2023-12-20T04:44:33;0.20;;;0.20;;
11197;SDS011;5655;48.744;9.162;2023-12-20T04:46:59;0.13;;;0.10;;
11197;SDS011;5655;48.744;9.162;2023-12-20T04:49:25;0.20;;;0.20;;
11197;SDS011;5655;48.744;9.162;2023-12-20T04:51:50;0.70;;;0.35;;
11197;SDS011;5655;48.744;9.162;2023-12-20T04:54:15;0.35;;;0.20;;
11197;SDS011;5655;48.744;9.162;2023-12-20T04:56:41;0.22;;;0.22;;
11197;SDS011;5655;48.744;9.162;2023-12-20T04:59:06;0.10;;;0.10;;
11197;SDS011;5655;48.744;9.162;2023-12-20T05:01:32;0.40;;;0.40;;
11197;SDS011;5655;48.744;9.162;2023-12-20T05:03:57;0.40;;;0.25;;
11197;SDS011;5655;48.744;9.162;2023-12-20T05:06:23;0.55;;;0.30;;
11197;SDS011;5655;48.744;9.162;2023-12-20T05:08:48;0.25;;;0.25;;
11197;SDS011;5655;48.744;9.162;2023-12-20T05:11:13;0.20;;;0.20;;
11197;SDS011;5655;48.744;9.162;2023-12-20T05:13:40;0.95;;;0.35;;
11197;SDS011;5655;48.744;9.162;2023-12-20T05:16:05;0.63;;;0.28;;
11197;SDS011;5655;48.744;9.162;2023-12-20T05:18:31;0.30;;;0.30;;
11197;SDS011;5655;48.744;9.162;2023-12-20T05:20:56;1.17;;;0.30;;
11197;SDS011;5655;48.744;9.162;2023-12-20T05:23:21;0.68;;;0.28;;
11197;SDS011;5655;48.744;9.162;2023-12-20T05:25:47;0.32;;;0.25;;
11197;SDS011;5655;48.744;9.162;2023-12-20T05:28:12;0.63;;;0.20;;
11197;SDS011;5655;48.744;9.162;2023-12-20T05:30:37;0.45;;;0.45;;
11197;SDS011;5655;48.744;9.162;2023-12-20T05:33:03;1.75;;;0.20;;
11197;SDS011;5655;48.744;9.162;2023-12-20T05:35:28;2.92;;;0.43;;
11197;SDS011;5655;48.744;9.162;2023-12-20T05:37:54;0.40;;;0.30;;
11197;SDS011;5655;48.744;9.162;2023-12-20T05:40:19;0.98;;;0.30;;
11197;SDS011;5655;48.744;9.162;2023-12-20T05:42:44;0.90;;;0.50;;
11197;SDS011;5655;48.744;9.162;2023-12-20T05:45:09;2.22;;;0.50;;
11197;SDS011;5655;48.744;9.162;2023-12-20T05:47:35;0.70;;;0.45;;
11197;SDS011;5655;48.744;9.162;2023-12-20T05:50:01;1.35;;;0.45;;
11197;SDS011;5655;48.744;9.162;2023-12-20T05:52:26;1.35;;;0.60;;
11197;SDS011;5655;48.744;9.162;2023-12-20T05:54:51;1.63;;;0.50;;
11197;SDS011;5655;48.744;9.162;2023-12-20T05:57:17;1.65;;;0.50;;
11197;SDS011;5655;48.744;9.162;2023-12-20T05:59:42;0.90;;;0.70;;
11197;SDS011;5655;48.744;9.162;2023-12-20T06:02:07;1.02;;;0.93;;
11197;SDS011;5655;48.744;9.162;2023-12-20T06:04:33;1.52;;;0.73;;
11197;SDS011;5655;48.744;9.162;2023-12-20T06:06:58;0.50;;;0.50;;
11197;SDS011;5655;48.744;9.162;2023-12-20T06:09:24;1.20;;;0.80;;
11197;SDS011;5655;48.744;9.162;2023-12-20T06:11:50;0.93;;;0.68;;
11197;SDS011;5655;48.744;9.162;2023-12-20T06:14:16;3.13;;;0.70;;
11197;SDS011;5655;48.744;9.162;2023-12-20T06:16:41;1.75;;;0.77;;
11197;SDS011;5655;48.744;9.162;2023-12-20T06:19:06;3.10;;;0.80;;
11197;SDS011;5655;48.744;9.162;2023-12-20T06:21:32;3.08;;;1.02;;
11197;SDS011;5655;48.744;9.162;2023-12-20T06:23:58;4.78;;;0.77;;
11197;SDS011;5655;48.744;9.162;2023-12-20T06:26:24;1.83;;;1.00;;
11197;SDS011;5655;48.744;9.162;2023-12-20T06:28:49;1.30;;;0.77;;
11197;SDS011;5655;48.744;9.162;2023-12-20T06:31:14;1.52;;;0.80;;
11197;SDS011;5655;48.744;9.162;2023-12-20T06:33:40;1.25;;;0.90;;
11197;SDS011;5655;48.744;9.162;2023-12-20T06:36:10;1.10;;;1.00;;
11197;SDS011;5655;48.744;9.162;2023-12-20T06:38:36;0.82;;;0.80;;
11197;SDS011;5655;48.744;9.162;2023-12-20T06:41:01;2.95;;;1.15;;
11197;SDS011;5655;48.744;9.162;2023-12-20T06:43:27;1.65;;;0.82;;
11197;SDS011;5655;48.744;9.162;2023-12-20T06:45:52;3.80;;;1.10;;
11197;SDS011;5655;48.744;9.162;2023-12-20T06:48:17;1.70;;;1.00;;
11197;SDS011;5655;48.744;9.162;2023-12-20T06:50:43;0.85;;;0.80;;
11197;SDS011;5655;48.744;9.162;2023-12-20T06:53:08;1.73;;;1.38;;
11197;SDS011;5655;48.744;9.162;2023-12-20T06:55:35;2.65;;;1.08;;
11197;SDS011;5655;48.744;9.162;2023-12-20T06:58:01;1.10;;;0.93;;
11197;SDS011;5655;48.744;9.162;2023-12-20T07:00:27;1.73;;;0.90;;
11197;SDS011;5655;48.744;9.162;2023-12-20T07:02:53;1.55;;;1.02;;
11197;SDS011;5655;48.744;9.162;2023-12-20T07:05:18;3.03;;;1.20;;
11197;SDS011;5655;48.744;9.162;2023-12-20T07:07:45;1.00;;;0.88;;
11197;SDS011;5655;48.744;9.162;2023-12-20T07:10:11;1.15;;;1.02;;
11197;SDS011;5655;48.744;9.162;2023-12-20T07:12:37;1.70;;;0.95;;
11197;SDS011;5655;48.744;9.162;2023-12-20T07:15:02;2.38;;;0.80;;
11197;SDS011;5655;48.744;9.162;2023-12-20T07:17:27;1.23;;;0.80;;
11197;SDS011;5655;48.744;9.162;2023-12-20T07:19:53;1.10;;;1.00;;
11197;SDS011;5655;48.744;9.162;2023-12-20T07:22:18;1.42;;;0.90;;
11197;SDS011;5655;48.744;9.162;2023-12-20T07:24:43;1.52;;;1.05;;
11197;SDS011;5655;48.744;9.162;2023-12-20T07:27:09;1.33;;;1.02;;
11197;SDS011;5655;48.744;9.162;2023-12-20T07:29:34;1.13;;;0.90;;
11197;SDS011;5655;48.744;9.162;2023-12-20T07:32:00;3.25;;;1.30;;
11197;SDS011;5655;48.744;9.162;2023-12-20T07:34:25;1.30;;;1.20;;
11197;SDS011;5655;48.744;9.162;2023-12-20T07:36:50;3.30;;;1.95;;
11197;SDS011;5655;48.744;9.162;2023-12-20T07:39:15;1.60;;;1.38;;
11197;SDS011;5655;48.744;9.162;2023-12-20T07:41:41;1.88;;;1.65;;
11197;SDS011;5655;48.744;9.162;2023-12-20T07:44:06;1.80;;;1.65;;
11197;SDS011;5655;48.744;9.162;2023-12-20T07:46:31;4.47;;;2.20;;
11197;SDS011;5655;48.744;9.162;2023-12-20T07:48:57;2.97;;;2.22;;
11197;SDS011;5655;48.744;9.162;2023-12-20T07:51:22;3.00;;;2.42;;
11197;SDS011;5655;48.744;9.162;2023-12-20T07:53:47;4.00;;;2.28;;
11197;SDS011;5655;48.744;9.162;2023-12-20T07:56:19;3.28;;;2.67;;
11197;SDS011;5655;48.744;9.162;2023-12-20T07:58:45;7.05;;;3.30;;
11197;SDS011;5655;48.744;9.162;2023-12-20T08:01:13;2.83;;;2.17;;
11197;SDS011;5655;48.744;9.162;2023-12-20T08:03:38;3.55;;;2.72;;
11197;SDS011;5655;48.744;9.162;2023-12-20T08:06:04;4.05;;;2.83;;
11197;SDS011;5655;48.744;9.162;2023-12-20T08:08:29;6.18;;;3.03;;
11197;SDS011;5655;48.744;9.162;2023-12-20T08:10:55;3.22;;;2.85;;
11197;SDS011;5655;48.744;9.162;2023-12-20T08:13:22;3.45;;;2.92;;
11197;SDS011;5655;48.744;9.162;2023-12-20T08:15:50;3.25;;;2.92;;
11197;SDS011;5655;48.744;9.162;2023-12-20T08:18:16;3.47;;;2.92;;
11197;SDS011;5655;48.744;9.162;2023-12-20T08:20:41;6.22;;;3.00;;
11197;SDS011;5655;48.744;9.162;2023-12-20T08:23:07;3.22;;;2.83;;
11197;SDS011;5655;48.744;9.162;2023-12-20T08:25:32;4.18;;;2.80;;
11197;SDS011;5655;48.744;9.162;2023-12-20T08:27:57;6.38;;;3.50;;
11197;SDS011;5655;48.744;9.162;2023-12-20T08:30:22;5.47;;;3.30;;
11197;SDS011;5655;48.744;9.162;2023-12-20T08:32:48;3.65;;;3.00;;
11197;SDS011;5655;48.744;9.162;2023-12-20T08:35:14;4.47;;;3.85;;
11197;SDS011;5655;48.744;9.162;2023-12-20T08:37:39;3.67;;;3.25;;
11197;SDS011;5655;48.744;9.162;2023-12-20T08:40:04;5.25;;;3.80;;
11197;SDS011;5655;48.744;9.162;2023-12-20T08:42:30;5.50;;;3.67;;
11197;SDS011;5655;48.744;9.162;2023-12-20T08:44:57;5.30;;;3.75;;
11197;SDS011;5655;48.744;9.162;2023-12-20T08:47:23;5.80;;;3.33;;
11197;SDS011;5655;48.744;9.162;2023-12-20T08:49:49;4.65;;;3.70;;
11197;SDS011;5655;48.744;9.162;2023-12-20T08:52:14;4.72;;;3.25;;
11197;SDS011;5655;48.744;9.162;2023-12-20T08:54:39;5.72;;;3.60;;
11197;SDS011;5655;48.744;9.162;2023-12-20T08:57:05;5.72;;;4.10;;
11197;SDS011;5655;48.744;9.162;2023-12-20T08:59:31;5.07;;;3.40;;
11197;SDS011;5655;48.744;9.162;2023-12-20T09:01:57;4.90;;;3.20;;
11197;SDS011;5655;48.744;9.162;2023-12-20T09:04:22;4.97;;;2.83;;
11197;SDS011;5655;48.744;9.162;2023-12-20T09:06:47;4.13;;;2.92;;
11197;SDS011;5655;48.744;9.162;2023-12-20T09:09:13;7.80;;;3.90;;
11197;SDS011;5655;48.744;9.162;2023-12-20T09:11:39;3.97;;;3.13;;
11197;SDS011;5655;48.744;9.162;2023-12-20T09:14:05;4.80;;;3.05;;
11197;SDS011;5655;48.744;9.162;2023-12-20T09:16:30;5.28;;;2.80;;
11197;SDS011;5655;48.744;9.162;2023-12-20T09:18:56;4.90;;;2.92;;
11197;SDS011;5655;48.744;9.162;2023-12-20T09:21:22;6.75;;;2.55;;
11197;SDS011;5655;48.744;9.162;2023-12-20T09:23:47;5.53;;;2.53;;
11197;SDS011;5655;48.744;9.162;2023-12-20T09:26:12;7.90;;;3.20;;
11197;SDS011;5655;48.744;9.162;2023-12-20T09:28:38;3.72;;;2.40;;
11197;SDS011;5655;48.744;9.162;2023-12-20T09:31:05;4.03;;;2.70;;
11197;SDS011;5655;48.744;9.162;2023-12-20T09:33:30;4.45;;;2.55;;
11197;SDS011;5655;48.744;9.162;2023-12-20T09:35:55;4.97;;;2.45;;
11197;SDS011;5655;48.744;9.162;2023-12-20T09:38:21;3.92;;;2.20;;
11197;SDS011;5655;48.744;9.162;2023-12-20T09:40:47;5.18;;;2.08;;
11197;SDS011;5655;48.744;9.162;2023-12-20T09:43:15;5.85;;;2.40;;
11197;SDS011;5655;48.744;9.162;2023-12-20T09:45:45;4.03;;;1.83;;
11197;SDS011;5655;48.744;9.162;2023-12-20T09:48:12;3.95;;;1.90;;
11197;SDS011;5655;48.744;9.162;2023-12-20T09:50:39;4.30;;;1.65;;
11197;SDS011;5655;48.744;9.162;2023-12-20T09:53:05;3.95;;;1.50;;
11197;SDS011;5655;48.744;9.162;2023-12-20T09:55:34;5.22;;;1.67;;
11197;SDS011;5655;48.744;9.162;2023-12-20T09:58:01;5.65;;;1.40;;
11197;SDS011;5655;48.744;9.162;2023-12-20T10:00:26;3.38;;;1.40;;
11197;SDS011;5655;48.744;9.162;2023-12-20T10:02:59;6.88;;;1.48;;
11197;SDS011;5655;48.744;9.162;2023-12-20T10:05:29;3.05;;;1.50;;
11197;SDS011;5655;48.744;9.162;2023-12-20T10:07:58;4.07;;;1.15;;
11197;SDS011;5655;48.744;9.162;2023-12-20T10:10:25;3.10;;;1.35;;
11197;SDS011;5655;48.744;9.162;2023-12-20T10:13:04;3.10;;;1.10;;
11197;SDS011;5655;48.744;9.162;2023-12-20T10:15:31;4.63;;;1.42;;
11197;SDS011;5655;48.744;9.162;2023-12-20T10:17:57;6.85;;;1.60;;
11197;SDS011;5655;48.744;9.162;2023-12-20T10:20:23;5.18;;;1.45;;
11197;SDS011;5655;48.744;9.162;2023-12-20T10:22:49;3.33;;;1.60;;
11197;SDS011;5655;48.744;9.162;2023-12-20T10:25:14;7.82;;;1.52;;
11197;SDS011;5655;48.744;9.162;2023-12-20T10:27:39;2.58;;;1.48;;
11197;SDS011;5655;48.744;9.162;2023-12-20T10:30:05;3.22;;;1.13;;
11197;SDS011;5655;48.744;9.162;2023-12-20T10:32:31;4.22;;;1.38;;
11197;SDS011;5655;48.744;9.162;2023-12-20T10:34:56;8.25;;;1.90;;
11197;SDS011;5655;48.744;9.162;2023-12-20T10:37:22;5.45;;;1.27;;
11197;SDS011;5655;48.744;9.162;2023-12-20T10:39:51;2.47;;;1.20;;
11197;SDS011;5655;48.744;9.162;2023-12-20T10:42:21;4.43;;;1.38;;
11197;SDS011;5655;48.744;9.162;2023-12-20T10:44:47;2.90;;;1.40;;
11197;SDS011;5655;48.744;9.162;2023-12-20T10:47:13;6.25;;;1.38;;
11197;SDS011;5655;48.744;9.162;2023-12-20T10:49:38;1.80;;;1.13;;
11197;SDS011;5655;48.744;9.162;2023-12-20T10:52:05;1.58;;;1.05;;
11197;SDS011;5655;48.744;9.162;2023-12-20T10:54:31;4.35;;;2.13;;
11197;SDS011;5655;48.744;9.162;2023-12-20T10:56:57;2.88;;;1.48;;
11197;SDS011;5655;48.744;9.162;2023-12-20T10:59:23;2.53;;;1.48;;
11197;SDS011;5655;48.744;9.162;2023-12-20T11:01:50;3.13;;;1.58;;
11197;SDS011;5655;48.744;9.162;2023-12-20T11:04:16;5.30;;;1.42;;
11197;SDS011;5655;48.744;9.162;2023-12-20T11:06:51;4.07;;;1.17;;
11197;SDS011;5655;48.744;9.162;2023-12-20T11:09:25;8.50;;;1.60;;
11197;SDS011;5655;48.744;9.162;2023-12-20T11:14:51;1.30;;;1.10;;
11197;SDS011;5655;48.744;9.162;2023-12-20T11:17:19;6.45;;;1.60;;
11197;SDS011;5655;48.744;9.162;2023-12-20T11:22:22;4.88;;;1.60;;
11197;SDS011;5655;48.744;9.162;2023-12-20T11:24:51;4.25;;;1.50;;
11197;SDS011;5655;48.744;9.162;2023-12-20T11:27:21;2.40;;;1.30;;
11197;SDS011;5655;48.744;9.162;2023-12-20T11:29:53;4.25;;;1.20;;
11197;SDS011;5655;48.744;9.162;2023-12-20T11:34:54;4.05;;;1.55;;
11197;SDS011;5655;48.744;9.162;2023-12-20T11:37:28;6.35;;;1.73;;
11197;SDS011;5655;48.744;9.162;2023-12-20T11:39:55;6.72;;;1.75;;
11197;SDS011;5655;48.744;9.162;2023-12-20T11:42:21;6.60;;;1.70;;
11197;SDS011;5655;48.744;9.162;2023-12-20T11:44:47;6.93;;;1.65;;
11197;SDS011;5655;48.744;9.162;2023-12-20T11:47:13;3.70;;;1.73;;
11197;SDS011;5655;48.744;9.162;2023-12-20T11:49:38;7.25;;;1.83;;
11197;SDS011;5655;48.744;9.162;2023-12-20T11:52:04;8.55;;;1.60;;
11197;SDS011;5655;48.744;9.162;2023-12-20T11:54:30;5.82;;;1.48;;
11197;SDS011;5655;48.744;9.162;2023-12-20T11:56:55;6.78;;;1.40;;
11197;SDS011;5655;48.744;9.162;2023-12-20T11:59:21;2.63;;;1.25;;
11197;SDS011;5655;48.744;9.162;2023-12-20T12:01:49;3.25;;;1.38;;
11197;SDS011;5655;48.744;9.162;2023-12-20T12:04:15;6.05;;;1.60;;
11197;SDS011;5655;48.744;9.162;2023-12-20T12:06:42;4.18;;;1.60;;
11197;SDS011;5655;48.744;9.162;2023-12-20T12:09:08;4.45;;;1.38;;
11197;SDS011;5655;48.744;9.162;2023-12-20T12:11:33;4.53;;;1.50;;
11197;SDS011;5655;48.744;9.162;2023-12-20T12:13:59;3.67;;;1.40;;
11197;SDS011;5655;48.744;9.162;2023-12-20T12:16:25;4.35;;;1.50;;
11197;SDS011;5655;48.744;9.162;2023-12-20T12:18:57;6.35;;;1.52;;
11197;SDS011;5655;48.744;9.162;2023-12-20T12:21:23;3.22;;;1.38;;
11197;SDS011;5655;48.744;9.162;2023-12-20T12:23:49;2.85;;;1.60;;
11197;SDS011;5655;48.744;9.162;2023-12-20T12:26:14;2.22;;;1.40;;
11197;SDS011;5655;48.744;9.162;2023-12-20T12:28:40;3.28;;;1.48;;
11197;SDS011;5655;48.744;9.162;2023-12-20T12:31:07;4.90;;;1.50;;
11197;SDS011;5655;48.744;9.162;2023-12-20T12:33:33;4.05;;;1.38;;
11197;SDS011;5655;48.744;9.162;2023-12-20T12:35:59;4.18;;;1.50;;
11197;SDS011;5655;48.744;9.162;2023-12-20T12:38:26;2.97;;;1.30;;
11197;SDS011;5655;48.744;9.162;2023-12-20T12:40:51;4.38;;;1.70;;
11197;SDS011;5655;48.744;9.162;2023-12-20T12:43:18;4.70;;;1.38;;
11197;SDS011;5655;48.744;9.162;2023-12-20T12:45:43;4.63;;;1.73;;
11197;SDS011;5655;48.744;9.162;2023-12-20T12:48:09;4.05;;;1.63;;
11197;SDS011;5655;48.744;9.162;2023-12-20T12:50:34;5.32;;;2.25;;
11197;SDS011;5655;48.744;9.162;2023-12-20T12:53:00;4.97;;;1.50;;
11197;SDS011;5655;48.744;9.162;2023-12-20T12:55:27;4.18;;;1.40;;
11197;SDS011;5655;48.744;9.162;2023-12-20T12:57:53;6.13;;;1.55;;
11197;SDS011;5655;48.744;9.162;2023-12-20T13:00:18;4.18;;;1.40;;
11197;SDS011;5655;48.744;9.162;2023-12-20T13:02:44;2.83;;;1.20;;
11197;SDS011;5655;48.744;9.162;2023-12-20T13:05:09;3.15;;;1.30;;
11197;SDS011;5655;48.744;9.162;2023-12-20T13:07:35;4.55;;;1.55;;
11197;SDS011;5655;48.744;9.162;2023-12-20T13:10:02;6.88;;;2.47;;
11197;SDS011;5655;48.744;9.162;2023-12-20T13:12:28;7.53;;;2.50;;
11197;SDS011;5655;48.744;9.162;2023-12-20T13:14:54;4.40;;;1.30;;
11197;SDS011;5655;48.744;9.162;2023-12-20T13:17:19;6.93;;;1.50;;
11197;SDS011;5655;48.744;9.162;2023-12-20T13:19:45;3.05;;;1.33;;
11197;SDS011;5655;48.744;9.162;2023-12-20T13:22:10;3.50;;;1.55;;
11197;SDS011;5655;48.744;9.162;2023-12-20T13:24:35;4.72;;;1.45;;
11197;SDS011;5655;48.744;9.162;2023-12-20T13:27:01;2.33;;;1.30;;
11197;SDS011;5655;48.744;9.162;2023-12-20T13:29:26;2.03;;;1.23;;
11197;SDS011;5655;48.744;9.162;2023-12-20T13:31:54;5.53;;;1.33;;
11197;SDS011;5655;48.744;9.162;2023-12-20T13:34:19;6.57;;;1.48;;
11197;SDS011;5655;48.744;9.162;2023-12-20T13:36:46;5.00;;;1.30;;
11197;SDS011;5655;48.744;9.162;2023-12-20T13:39:12;4.30;;;1.27;;
11197;SDS011;5655;48.744;9.162;2023-12-20T13:41:38;4.45;;;1.02;;
11197;SDS011;5655;48.744;9.162;2023-12-20T13:44:04;5.65;;;1.10;;
11197;SDS011;5655;48.744;9.162;2023-12-20T13:46:29;4.93;;;1.05;;
11197;SDS011;5655;48.744;9.162;2023-12-20T13:48:55;7.32;;;1.10;;
11197;SDS011;5655;48.744;9.162;2023-12-20T13:51:20;2.95;;;1.10;;
11197;SDS011;5655;48.744;9.162;2023-12-20T13:53:46;2.88;;;1.83;;
11197;SDS011;5655;48.744;9.162;2023-12-20T13:56:13;1.83;;;0.90;;
11197;SDS011;5655;48.744;9.162;2023-12-20T13:58:38;3.05;;;1.10;;
11197;SDS011;5655;48.744;9.162;2023-12-20T14:01:04;6.50;;;1.38;;
11197;SDS011;5655;48.744;9.162;2023-12-20T14:03:30;4.45;;;1.05;;
11197;SDS011;5655;48.744;9.162;2023-12-20T14:05:56;5.28;;;1.40;;
11197;SDS011;5655;48.744;9.162;2023-12-20T14:08:21;4.53;;;1.30;;
11197;SDS011;5655;48.744;9.162;2023-12-20T14:10:47;2.78;;;1.10;;
11197;SDS011;5655;48.744;9.162;2023-12-20T14:13:12;6.25;;;1.25;;
11197;SDS011;5655;48.744;9.162;2023-12-20T14:15:37;2.88;;;1.00;;
11197;SDS011;5655;48.744;9.162;2023-12-20T14:18:04;2.38;;;1.00;;
11197;SDS011;5655;48.744;9.162;2023-12-20T14:20:33;3.85;;;1.20;;
11197;SDS011;5655;48.744;9.162;2023-12-20T14:23:00;4.80;;;1.30;;
11197;SDS011;5655;48.744;9.162;2023-12-20T14:25:26;3.42;;;1.23;;
11197;SDS011;5655;48.744;9.162;2023-12-20T14:27:52;6.03;;;1.48;;
11197;SDS011;5655;48.744;9.162;2023-12-20T14:30:17;5.85;;;1.30;;
11197;SDS011;5655;48.744;9.162;2023-12-20T14:32:42;3.20;;;1.45;;
11197;SDS011;5655;48.744;9.162;2023-12-20T14:35:08;3.67;;;1.50;;
11197;SDS011;5655;48.744;9.162;2023-12-20T14:37:34;4.43;;;1.60;;
11197;SDS011;5655;48.744;9.162;2023-12-20T14:40:01;2.83;;;1.40;;
11197;SDS011;5655;48.744;9.162;2023-12-20T14:42:27;7.82;;;1.50;;
11197;SDS011;5655;48.744;9.162;2023-12-20T14:44:52;3.70;;;1.60;;
11197;SDS011;5655;48.744;9.162;2023-12-20T14:47:19;5.38;;;1.42;;
11197;SDS011;5655;48.744;9.162;2023-12-20T14:49:45;6.40;;;2.13;;
11197;SDS011;5655;48.744;9.162;2023-12-20T14:52:10;2.15;;;0.90;;
11197;SDS011;5655;48.744;9.162;2023-12-20T14:54:36;2.53;;;1.27;;
11197;SDS011;5655;48.744;9.162;2023-12-20T14:57:02;3.22;;;1.58;;
11197;SDS011;5655;48.744;9.162;2023-12-20T14:59:27;1.88;;;1.23;;
11197;SDS011;5655;48.744;9.162;2023-12-20T15:01:53;4.63;;;1.10;;